Time;durP1;ratioP1;P1;durP2;ratioP2;P2;SDS_P1;SDS_P2;PMS_P1;PMS_P2;Temp;Humidity;BMP_temperature;BMP_pressure;BME280_temperature;BME280_humidity;BME280_pressure;Samples;Min_cycle;Max_cycle;Signal;HPM_P1;HPM_P2
2022/11/12 00:02:13;;;;;;;20.17;15.13;;;4.10;99.90;;;;;;2614837;54;20944;-77
2022/11/12 00:08:01;;;;;;;20.53;14.60;;;4.40;99.90;;;;;;2614929;54;20134;-77
2022/11/12 00:13:49;;;;;;;19.80;16.13;;;4.10;99.90;;;;;;2615404;54;20371;-74
2022/11/12 00:19:36;;;;;;;15.63;14.03;;;4.00;99.90;;;;;;2616223;39;20535;-76
2022/11/12 00:25:24;;;;;;;15.17;13.67;;;4.00;99.90;;;;;;2614739;54;20131;-75
2022/11/12 00:31:12;;;;;;;17.37;14.43;;;3.90;99.90;;;;;;2615352;54;20682;-74
2022/11/12 00:37:00;;;;;;;16.90;12.87;;;4.00;99.90;;;;;;2615204;54;20154;-78
2022/11/12 00:43:01;;;;;;;14.57;12.90;;;4.00;99.90;;;;;;2612324;54;20412;-78
2022/11/12 00:48:48;;;;;;;14.50;13.00;;;3.80;99.90;;;;;;2614271;39;20559;-77
2022/11/12 00:54:35;;;;;;;14.20;12.70;;;3.70;99.90;;;;;;2613165;54;20133;-78
2022/11/12 01:00:22;;;;;;;18.47;12.83;;;3.80;99.90;;;;;;2612957;54;20130;-78
2022/11/12 01:06:12;;;;;;;16.83;13.53;;;3.70;99.90;;;;;;2613483;54;20150;-77
2022/11/12 01:12:00;;;;;;;14.23;12.43;;;3.70;99.90;;;;;;2612524;39;20743;-78
2022/11/12 01:17:47;;;;;;;15.50;12.20;;;3.50;99.90;;;;;;2612757;46;20710;-78
2022/11/12 01:23:37;;;;;;;14.70;11.40;;;3.60;99.90;;;;;;2614871;54;20154;-77
2022/11/12 01:29:24;;;;;;;13.70;12.10;;;3.60;99.90;;;;;;2615325;54;20382;-79
2022/11/12 01:35:12;;;;;;;13.87;12.47;;;3.60;99.90;;;;;;2615428;54;20134;-76
2022/11/12 01:44:50;;;;;;;13.33;11.93;;;3.60;99.90;;;;;;2614940;54;20453;-73
2022/11/12 01:50:40;;;;;;;11.43;10.30;;;3.50;99.90;;;;;;2614539;54;20944;-74
2022/11/12 01:56:30;;;;;;;16.80;12.93;;;3.40;99.90;;;;;;2613629;54;20395;-76
2022/11/12 02:02:17;;;;;;;12.47;11.33;;;3.50;99.90;;;;;;2614748;54;20410;-77
2022/11/12 02:08:09;;;;;;;11.73;10.30;;;3.50;99.90;;;;;;2615621;54;20134;-77
2022/11/12 02:13:57;;;;;;;12.40;11.10;;;3.50;99.90;;;;;;2612152;54;20403;-76
2022/11/12 02:19:46;;;;;;;11.40;10.30;;;3.40;99.90;;;;;;2613256;54;20378;-76
2022/11/12 02:25:35;;;;;;;12.00;10.77;;;3.40;99.90;;;;;;2612656;54;20903;-74
2022/11/12 02:31:22;;;;;;;10.60;9.63;;;3.40;99.90;;;;;;2612649;54;20511;-75
2022/11/12 02:37:10;;;;;;;14.37;10.50;;;3.60;99.90;;;;;;2612311;54;20663;-77
2022/11/12 02:40:15;;;;;;;12.83;9.80;;;3.50;99.90;;;;;;2611575;46;20495;-77
2022/11/12 02:42:41;;;;;;;10.30;9.30;;;3.40;99.90;;;;;;2612658;39;20575;-77
2022/11/12 02:48:29;;;;;;;13.63;9.70;;;3.50;99.90;;;;;;2611202;54;20307;-78
2022/11/12 02:54:16;;;;;;;11.77;10.00;;;3.40;99.90;;;;;;2615502;39;20529;-76
2022/11/12 03:00:06;;;;;;;11.07;9.83;;;3.40;99.90;;;;;;2616950;54;20119;-76
2022/11/12 03:05:59;;;;;;;12.20;10.93;;;3.40;99.90;;;;;;2612325;54;20371;-75
2022/11/12 03:11:47;;;;;;;10.13;9.17;;;3.40;99.90;;;;;;2615894;39;20891;-75
2022/11/12 03:17:35;;;;;;;10.07;9.17;;;3.30;99.90;;;;;;2614759;39;20554;-77
2022/11/12 03:23:24;;;;;;;10.57;9.47;;;3.40;99.90;;;;;;2613868;54;20209;-75
2022/11/12 03:29:12;;;;;;;10.33;9.33;;;3.30;99.90;;;;;;2612743;54;20427;-77
2022/11/12 03:35:00;;;;;;;11.83;10.27;;;3.30;99.90;;;;;;2614770;54;20162;-77
2022/11/12 03:44:50;;;;;;;12.37;10.77;;;3.30;99.90;;;;;;2615127;54;20516;-77
2022/11/12 03:50:38;;;;;;;11.67;9.60;;;3.20;99.90;;;;;;2615308;54;20467;-78
2022/11/12 03:56:26;;;;;;;10.97;9.87;;;3.20;99.90;;;;;;2614294;54;20126;-78
2022/11/12 04:02:13;;;;;;;11.77;10.20;;;3.20;99.90;;;;;;2615661;39;20549;-75
2022/11/12 04:14:09;;;;;;;14.80;11.40;;;3.10;99.90;;;;;;2615382;54;20395;-76
2022/11/12 04:32:09;;;;;;;11.50;9.77;;;3.20;99.90;;;;;;2614865;54;20990;-74
2022/11/12 04:37:57;;;;;;;11.97;10.43;;;3.10;99.90;;;;;;2615784;39;20549;-76
2022/11/12 04:53:51;;;;;;;10.80;10.00;;;3.10;99.90;;;;;;2612559;39;20766;-76
2022/11/12 04:59:38;;;;;;;10.70;9.77;;;3.10;99.90;;;;;;2613492;54;20222;-76
2022/11/12 05:05:25;;;;;;;14.00;9.73;;;3.10;99.90;;;;;;2612951;54;20141;-76
2022/11/12 05:11:12;;;;;;;10.20;9.10;;;3.20;99.90;;;;;;2612243;54;20162;-76
2022/11/12 05:16:59;;;;;;;10.37;8.97;;;3.10;99.90;;;;;;2613239;54;20151;-76
2022/11/12 05:22:47;;;;;;;10.20;9.30;;;3.10;99.90;;;;;;2613392;54;20134;-75
2022/11/12 05:28:34;;;;;;;10.43;9.27;;;3.20;99.90;;;;;;2614857;54;20133;-76
2022/11/12 05:34:23;;;;;;;10.63;9.53;;;3.10;99.90;;;;;;2614229;54;20263;-76
2022/11/12 05:40:11;;;;;;;11.50;9.20;;;2.90;99.90;;;;;;2614813;54;20915;-76
2022/11/12 05:42:37;;;;;;;13.37;10.97;;;2.90;99.90;;;;;;2612153;54;20396;-76
2022/11/12 05:45:03;;;;;;;10.83;9.77;;;2.80;99.90;;;;;;2612220;47;20518;-76
2022/11/12 05:50:51;;;;;;;12.97;11.73;;;2.70;99.90;;;;;;2613995;54;20398;-76
2022/11/12 05:56:40;;;;;;;11.90;10.40;;;2.70;99.90;;;;;;2612111;54;20409;-77
2022/11/12 06:02:27;;;;;;;11.97;10.87;;;2.70;99.90;;;;;;2613896;54;20377;-74
2022/11/12 06:08:15;;;;;;;9.87;8.97;;;2.60;99.90;;;;;;2614879;54;20770;-76
2022/11/12 06:14:04;;;;;;;13.73;10.00;;;2.70;99.90;;;;;;2614555;54;20185;-77
2022/11/12 06:19:52;;;;;;;11.63;10.30;;;2.70;99.90;;;;;;2614920;54;20956;-75
2022/11/12 06:25:39;;;;;;;20.73;12.83;;;2.70;99.90;;;;;;2615272;54;20149;-74
2022/11/12 06:31:27;;;;;;;13.70;11.70;;;2.60;99.90;;;;;;2613729;54;20173;-75
2022/11/12 06:37:15;;;;;;;14.37;11.10;;;2.80;99.90;;;;;;2615226;54;21553;-75
2022/11/12 06:47:09;;;;;;;14.00;11.13;;;2.80;99.90;;;;;;2615125;54;20409;-76
2022/11/12 06:52:58;;;;;;;13.40;10.53;;;2.70;99.90;;;;;;2612698;54;20454;-77
2022/11/12 06:58:45;;;;;;;13.20;11.00;;;2.70;99.90;;;;;;2614274;54;20429;-78
2022/11/12 07:01:49;;;;;;;11.77;10.57;;;2.80;99.90;;;;;;2614427;54;20387;-78
2022/11/12 07:04:14;;;;;;;12.77;10.33;;;2.90;99.90;;;;;;2615317;54;20166;-77
2022/11/12 07:10:03;;;;;;;12.30;10.97;;;2.90;99.90;;;;;;2615439;54;20278;-77
2022/11/12 07:15:51;;;;;;;10.70;9.80;;;3.00;99.90;;;;;;2615216;54;20370;-77
2022/11/12 07:21:39;;;;;;;13.17;11.07;;;3.10;99.90;;;;;;2614634;54;20137;-77
2022/11/12 07:27:29;;;;;;;13.67;11.67;;;3.20;99.90;;;;;;2614107;54;20178;-76
2022/11/12 07:33:17;;;;;;;13.10;11.80;;;3.40;99.90;;;;;;2612710;54;20382;-76
2022/11/12 07:39:05;;;;;;;12.97;10.70;;;3.60;99.90;;;;;;2613620;54;20697;-77
2022/11/12 07:44:52;;;;;;;13.37;11.60;;;3.80;99.90;;;;;;2613822;54;21003;-77
2022/11/12 07:50:40;;;;;;;12.43;11.13;;;3.90;99.90;;;;;;2613456;39;20677;-77
2022/11/12 07:56:29;;;;;;;12.27;11.00;;;4.40;99.90;;;;;;2614431;54;20254;-76
2022/11/12 08:02:17;;;;;;;12.23;10.07;;;5.10;99.90;;;;;;2613494;39;20783;-74
2022/11/12 08:08:04;;;;;;;15.47;8.23;;;9.10;99.90;;;;;;2613729;54;20239;-74
2022/11/12 08:13:52;;;;;;;10.80;8.60;;;12.10;99.80;;;;;;2615238;54;20122;-73
2022/11/12 08:19:40;;;;;;;12.60;9.60;;;12.40;81.20;;;;;;2613682;54;20122;-74
2022/11/12 08:25:29;;;;;;;11.10;10.07;;;11.00;99.90;;;;;;2613573;54;20134;-75
2022/11/12 08:31:19;;;;;;;11.13;9.93;;;10.60;99.90;;;;;;2612989;54;20391;-75
2022/11/12 08:37:07;;;;;;;11.53;10.33;;;10.50;99.90;;;;;;2614442;54;20438;-77
2022/11/12 08:47:12;;;;;;;10.33;9.40;;;10.10;99.90;;;;;;2613047;46;20425;-76
2022/11/12 08:53:06;;;;;;;11.37;10.40;;;10.80;99.90;;;;;;2613779;54;20442;-76
2022/11/12 08:58:54;;;;;;;13.53;12.17;;;11.40;99.90;;;;;;2613654;54;20446;-77
2022/11/12 09:04:42;;;;;;;13.80;12.60;;;12.80;99.90;;;;;;2613571;54;20134;-77
2022/11/12 09:10:30;;;;;;;15.63;14.33;;;13.60;99.90;;;;;;2613179;54;20362;-77
2022/11/12 09:16:20;;;;;;;16.27;15.00;;;14.50;86.40;;;;;;2612907;54;20118;-76
2022/11/12 09:22:07;;;;;;;18.50;17.20;;;16.60;55.00;;;;;;2612758;39;20739;-76
2022/11/12 09:27:55;;;;;;;20.33;18.83;;;16.10;57.40;;;;;;2613915;54;20146;-76
2022/11/12 09:33:43;;;;;;;22.10;20.30;;;16.80;50.40;;;;;;2615034;54;20242;-77
2022/11/12 09:39:30;;;;;;;22.63;20.97;;;17.20;47.30;;;;;;2616498;54;20239;-77
2022/11/12 09:42:40;;;;;;;19.77;18.20;;;18.20;40.70;;;;;;2615138;54;20419;-77
2022/11/12 09:58:13;;;;;;;23.73;22.00;;;18.90;35.00;;;;;;2617310;54;20427;-77
2022/11/12 10:04:19;;;;;;;24.37;22.43;;;19.20;33.30;;;;;;2616325;39;20796;-78
2022/11/12 10:23:19;;;;;;;23.40;21.70;;;20.60;28.60;;;;;;2615951;54;20395;-77
2022/11/12 10:29:10;;;;;;;21.30;19.80;;;19.50;27.80;;;;;;2614404;54;20439;-77
2022/11/12 10:34:58;;;;;;;19.90;18.40;;;20.50;26.80;;;;;;2613935;54;20414;-77
2022/11/12 10:40:46;;;;;;;19.47;18.17;;;19.40;27.00;;;;;;2615363;54;20141;-79
2022/11/12 10:56:36;;;;;;;23.90;22.20;;;19.40;27.70;;;;;;2614578;54;20475;-79
2022/11/12 11:02:24;;;;;;;22.37;20.70;;;19.20;29.60;;;;;;2614800;54;20139;-79
2022/11/12 11:08:12;;;;;;;21.03;19.60;;;17.90;29.30;;;;;;2614265;39;20611;-79
2022/11/12 11:14:22;;;;;;;21.53;19.70;;;18.60;27.30;;;;;;2615704;54;20149;-74
2022/11/12 11:33:30;;;;;;;18.20;17.00;;;18.20;28.90;;;;;;2615942;39;20744;-78
2022/11/12 11:39:21;;;;;;;17.70;16.60;;;19.30;26.80;;;;;;2613884;46;20414;-78
2022/11/12 11:45:25;;;;;;;18.03;16.83;;;19.10;26.50;;;;;;2616253;31;21068;-77
2022/11/12 11:51:37;;;;;;;18.17;17.03;;;18.50;29.30;;;;;;2615138;54;20394;-77
2022/11/12 12:03:49;;;;;;;15.57;14.63;;;20.40;25.10;;;;;;2615050;54;20396;-77
2022/11/12 12:09:56;;;;;;;17.97;16.70;;;20.90;23.80;;;;;;2616010;54;20395;-78
2022/11/12 12:39:50;;;;;;;16.40;15.03;;;20.10;23.60;;;;;;2613913;54;20399;-77
2022/11/12 12:52:20;;;;;;;16.43;15.10;;;21.30;22.20;;;;;;2614568;54;20472;-78
2022/11/12 12:58:27;;;;;;;16.17;15.03;;;21.90;21.00;;;;;;2613776;54;20693;-78
2022/11/12 13:01:30;;;;;;;16.43;15.43;;;20.50;22.20;;;;;;2613953;39;20960;-78
2022/11/12 13:10:33;;;;;;;16.57;15.47;;;21.50;21.20;;;;;;2615607;54;20398;-77
2022/11/12 13:16:49;;;;;;;15.27;14.37;;;21.30;22.80;;;;;;2616708;54;20387;-77
2022/11/12 13:22:37;;;;;;;15.87;14.80;;;21.30;21.30;;;;;;2616541;54;20395;-77
2022/11/12 13:28:25;;;;;;;14.93;14.00;;;21.90;20.90;;;;;;2617621;54;20744;-76
2022/11/12 13:34:18;;;;;;;15.37;14.33;;;23.00;21.20;;;;;;2617366;54;20265;-77
2022/11/12 13:40:13;;;;;;;15.40;14.50;;;23.10;19.00;;;;;;2615985;54;20418;-77
2022/11/12 13:50:00;;;;;;;14.70;13.80;;;23.70;18.10;;;;;;2615566;54;20411;-78
2022/11/12 13:55:49;;;;;;;13.43;12.63;;;23.20;19.60;;;;;;2617454;54;20422;-77
2022/11/12 14:01:39;;;;;;;14.70;13.67;;;23.60;18.80;;;;;;2616411;31;20820;-77
2022/11/12 14:26:59;;;;;;;14.87;13.80;;;23.90;19.50;;;;;;2615547;54;20386;-76
2022/11/12 14:32:51;;;;;;;16.83;15.50;;;23.50;19.90;;;;;;2616122;54;20415;-78
2022/11/12 14:38:43;;;;;;;15.90;14.90;;;22.90;21.50;;;;;;2615678;54;20395;-78
2022/11/12 14:44:35;;;;;;;17.10;16.00;;;22.50;21.60;;;;;;2631860;36;20523;-77
2022/11/12 14:50:30;;;;;;;18.13;16.83;;;21.80;21.90;;;;;;2616333;54;20388;-78
2022/11/12 15:02:36;;;;;;;20.40;18.60;;;16.80;39.10;;;;;;2614631;54;20411;-78
2022/11/12 15:08:35;;;;;;;18.07;16.67;;;16.00;49.00;;;;;;2617126;54;20172;-77
2022/11/12 15:14:24;;;;;;;19.93;18.17;;;15.60;53.80;;;;;;2615805;54;20908;-77
2022/11/12 15:20:15;;;;;;;16.70;15.50;;;15.10;64.80;;;;;;2615574;54;20542;-77
2022/11/12 15:26:03;;;;;;;16.90;15.50;;;14.80;81.50;;;;;;2614280;54;21252;-77
2022/11/12 15:31:52;;;;;;;17.23;15.83;;;14.40;91.10;;;;;;2614979;54;20931;-77
2022/11/12 15:37:42;;;;;;;16.10;14.77;;;14.10;95.50;;;;;;2617512;54;20517;-77
2022/11/12 15:43:41;;;;;;;16.43;15.23;;;13.60;99.90;;;;;;2614250;54;20386;-78
2022/11/12 15:49:29;;;;;;;20.43;18.33;;;13.20;99.90;;;;;;2615542;54;20498;-78
2022/11/12 15:55:17;;;;;;;18.47;16.67;;;12.70;99.90;;;;;;2616265;54;20134;-76
2022/11/12 16:01:05;;;;;;;24.83;22.17;;;12.50;99.90;;;;;;2615902;39;20222;-77
2022/11/12 16:06:53;;;;;;;24.03;21.70;;;12.30;99.90;;;;;;2615303;54;20508;-77
2022/11/12 16:12:43;;;;;;;26.93;24.23;;;12.00;99.90;;;;;;2615003;54;20659;-78
2022/11/12 16:18:30;;;;;;;29.07;24.97;;;11.80;99.90;;;;;;2615483;54;20951;-78
2022/11/12 16:24:18;;;;;;;27.97;23.80;;;11.40;99.90;;;;;;2614281;39;20749;-78
2022/11/12 16:36:20;;;;;;;24.93;22.33;;;10.90;99.90;;;;;;2615139;54;21076;-76
2022/11/12 16:42:09;;;;;;;19.03;17.13;;;11.00;99.90;;;;;;2614829;54;20154;-76
2022/11/12 16:45:30;;;;;;;23.73;18.43;;;10.80;99.90;;;;;;2614594;46;20395;-76
2022/11/12 16:47:57;;;;;;;19.77;17.87;;;10.60;99.90;;;;;;2613537;54;20466;-76
2022/11/12 16:53:44;;;;;;;19.43;17.50;;;10.40;99.90;;;;;;2615375;54;20426;-78
2022/11/12 16:59:32;;;;;;;18.33;16.43;;;10.10;99.90;;;;;;2615480;54;20386;-79
2022/11/12 17:05:23;;;;;;;17.53;15.70;;;9.90;99.90;;;;;;2616984;54;20150;-77
2022/11/12 17:11:11;;;;;;;21.30;17.30;;;9.80;99.90;;;;;;2617690;39;20868;-79
2022/11/12 17:17:02;;;;;;;19.70;17.60;;;9.60;99.90;;;;;;2616504;39;20503;-78
2022/11/12 17:19:28;;;;;;;20.27;18.07;;;9.60;99.90;;;;;;2632965;36;20437;-78
2022/11/12 17:21:53;;;;;;;20.40;18.50;;;9.50;99.90;;;;;;2615000;54;20423;-78
2022/11/12 17:27:41;;;;;;;22.37;20.27;;;9.30;99.90;;;;;;2615266;54;20651;-79
2022/11/12 17:33:29;;;;;;;24.30;20.07;;;9.20;99.90;;;;;;2615311;46;20162;-79
2022/11/12 17:39:17;;;;;;;23.03;20.07;;;9.10;99.90;;;;;;2615527;54;20138;-79
2022/11/12 17:45:05;;;;;;;25.10;20.60;;;9.00;99.90;;;;;;2614405;54;20655;-79
2022/11/12 17:57:29;;;;;;;27.00;22.87;;;8.90;99.90;;;;;;2616754;54;20424;-78
2022/11/12 18:03:18;;;;;;;40.67;24.57;;;8.70;99.90;;;;;;2616166;54;20419;-77
2022/11/12 18:09:13;;;;;;;33.37;26.43;;;8.70;99.90;;;;;;2616193;39;20478;-79
2022/11/12 18:15:00;;;;;;;33.97;28.63;;;8.70;99.90;;;;;;2615894;54;21567;-78
2022/11/12 18:20:49;;;;;;;47.40;34.80;;;8.80;99.90;;;;;;2615943;54;20130;-80
2022/11/12 18:23:15;;;;;;;42.27;33.83;;;8.70;99.90;;;;;;2614237;54;20400;-79
2022/11/12 18:25:40;;;;;;;40.57;36.17;;;8.70;99.90;;;;;;2613305;54;20487;-78
2022/11/12 18:28:07;;;;;;;42.37;34.43;;;8.70;99.90;;;;;;2613406;54;20504;-78
2022/11/12 18:33:55;;;;;;;35.70;31.30;;;8.70;99.90;;;;;;2614843;54;20491;-77
2022/11/12 18:39:43;;;;;;;39.90;35.60;;;8.60;99.90;;;;;;2615304;46;20428;-79
2022/11/12 18:45:31;;;;;;;58.13;44.87;;;8.60;99.90;;;;;;2614627;54;20122;-79
2022/11/12 18:51:19;;;;;;;45.93;35.47;;;8.50;99.90;;;;;;2616217;54;20126;-78
2022/11/12 18:57:07;;;;;;;38.50;33.67;;;8.60;99.90;;;;;;2616045;54;20154;-77
2022/11/12 19:00:11;;;;;;;46.30;34.93;;;8.50;99.90;;;;;;2615371;54;20415;-78
2022/11/12 19:02:37;;;;;;;37.27;33.20;;;8.50;99.90;;;;;;2616455;54;20178;-78
2022/11/12 19:08:25;;;;;;;45.40;36.33;;;8.40;99.90;;;;;;2613135;54;20157;-79
2022/11/12 19:14:13;;;;;;;38.57;32.17;;;8.50;99.90;;;;;;2613505;54;20538;-78
2022/11/12 19:20:01;;;;;;;40.70;33.57;;;8.30;99.90;;;;;;2614175;46;20166;-78
2022/11/12 19:25:49;;;;;;;38.47;31.87;;;8.20;99.90;;;;;;2612499;39;20773;-77
2022/11/12 19:31:37;;;;;;;34.53;30.80;;;8.10;99.90;;;;;;2611614;54;20134;-76
2022/11/12 19:37:25;;;;;;;38.70;30.20;;;8.10;99.90;;;;;;2610571;54;20162;-75
2022/11/12 19:43:13;;;;;;;35.97;30.13;;;8.10;99.90;;;;;;2610747;54;20134;-76
2022/11/12 19:49:01;;;;;;;37.37;30.40;;;8.00;99.90;;;;;;2611526;54;20146;-76
2022/11/12 19:54:48;;;;;;;40.33;30.50;;;7.90;99.90;;;;;;2611971;54;20159;-75
2022/11/12 20:00:36;;;;;;;41.73;31.03;;;7.90;99.90;;;;;;2612054;39;20545;-74
2022/11/12 20:06:26;;;;;;;35.90;30.73;;;7.80;99.90;;;;;;2614272;54;20391;-75
2022/11/12 20:12:13;;;;;;;38.70;31.33;;;7.70;99.90;;;;;;2614124;54;20408;-76
2022/11/12 20:18:01;;;;;;;36.93;28.80;;;7.70;99.90;;;;;;2611790;54;20172;-76
2022/11/12 20:23:49;;;;;;;36.00;30.70;;;7.80;99.90;;;;;;2611894;54;20123;-77
2022/11/12 20:29:37;;;;;;;36.30;29.73;;;7.80;99.90;;;;;;2613850;54;20134;-75
2022/11/12 20:35:25;;;;;;;32.30;27.17;;;7.70;99.90;;;;;;2613291;54;20645;-75
2022/11/12 20:41:15;;;;;;;35.43;28.37;;;7.60;99.90;;;;;;2613916;54;20158;-75
2022/11/12 20:50:24;;;;;;;33.23;27.07;;;7.70;99.90;;;;;;2614948;54;20547;-75
2022/11/12 20:56:18;;;;;;;33.37;29.77;;;7.60;99.90;;;;;;2615281;39;20521;-78
2022/11/12 21:02:08;;;;;;;33.10;28.40;;;7.60;99.90;;;;;;2612762;39;20759;-78
2022/11/12 21:07:56;;;;;;;33.30;27.87;;;7.50;99.90;;;;;;2612669;54;20394;-78
2022/11/12 21:13:44;;;;;;;31.93;27.43;;;7.60;99.90;;;;;;2611725;54;20155;-78
2022/11/12 21:19:31;;;;;;;28.53;25.43;;;7.50;99.90;;;;;;2613036;54;20130;-78
2022/11/12 21:25:19;;;;;;;29.83;26.80;;;7.50;99.90;;;;;;2614682;54;20142;-78
2022/11/12 21:37:36;;;;;;;28.73;25.63;;;7.40;99.90;;;;;;2615918;46;20386;-78
2022/11/12 21:43:24;;;;;;;31.50;26.70;;;7.30;99.90;;;;;;2616079;54;20254;-76
2022/11/12 21:45:50;;;;;;;33.07;28.70;;;7.40;99.90;;;;;;2615146;54;20379;-76
2022/11/12 21:58:39;;;;;;;31.33;27.60;;;7.20;99.90;;;;;;2615018;54;20410;-77
2022/11/12 22:04:26;;;;;;;32.20;26.83;;;7.10;99.90;;;;;;2614781;54;20387;-79
2022/11/12 22:10:14;;;;;;;28.83;25.83;;;7.10;99.90;;;;;;2614766;54;20164;-79
2022/11/12 22:26:24;;;;;;;30.43;24.10;;;6.90;99.90;;;;;;2613728;54;20433;-79
2022/11/12 22:32:11;;;;;;;32.47;25.13;;;6.90;99.90;;;;;;2612113;54;20382;-79
2022/11/12 22:37:59;;;;;;;32.60;26.03;;;6.80;99.90;;;;;;2614861;39;20746;-79
2022/11/12 22:43:48;;;;;;;35.47;28.10;;;6.70;99.90;;;;;;2614824;54;20141;-78
2022/11/12 22:52:58;;;;;;;27.77;25.00;;;6.60;99.90;;;;;;2615443;54;20415;-78
2022/11/12 22:58:46;;;;;;;31.77;28.00;;;6.50;99.90;;;;;;2615980;54;20114;-78
2022/11/12 23:04:35;;;;;;;29.40;26.20;;;6.40;99.90;;;;;;2617394;54;20371;-77
2022/11/12 23:10:23;;;;;;;28.73;25.73;;;6.40;99.90;;;;;;2614842;54;20391;-78
2022/11/12 23:16:14;;;;;;;32.73;26.23;;;6.40;99.90;;;;;;2616084;54;20134;-78
2022/11/12 23:22:02;;;;;;;35.23;29.67;;;6.40;99.90;;;;;;2613674;54;20403;-78
2022/11/12 23:27:49;;;;;;;34.60;30.07;;;6.30;99.90;;;;;;2614797;39;20539;-79
2022/11/12 23:33:42;;;;;;;45.77;38.70;;;6.30;99.90;;;;;;2615905;54;20147;-77
2022/11/12 23:39:30;;;;;;;36.60;32.53;;;6.30;99.90;;;;;;2616559;54;20471;-78
2022/11/12 23:45:17;;;;;;;42.90;36.37;;;6.30;99.90;;;;;;2616091;54;20287;-77
2022/11/12 23:51:21;;;;;;;38.40;33.67;;;6.20;99.90;;;;;;2612379;54;20167;-78
2022/11/12 23:57:09;;;;;;;40.97;36.60;;;6.20;99.90;;;;;;2615515;39;20795;-77
